Time;durP1;ratioP1;P1;durP2;ratioP2;P2;SDS_P1;SDS_P2;PMS_P1;PMS_P2;Temp;Humidity;BMP_temperature;BMP_pressure;BME280_temperature;BME280_humidity;BME280_pressure;Samples;Min_cycle;Max_cycle;Signal;HPM_P1;HPM_P2
2023/09/26 00:00:31;;;;;;;1.43;1.00;;;19.60;63.50;;;;;;5021292;28;20468;-51
2023/09/26 00:03:00;;;;;;;1.77;1.30;;;19.50;63.40;;;;;;5018016;28;21092;-50
2023/09/26 00:05:28;;;;;;;1.77;1.10;;;19.50;63.40;;;;;;5017626;28;20522;-51
2023/09/26 00:07:57;;;;;;;2.37;1.10;;;19.50;63.40;;;;;;5018196;28;20892;-50
2023/09/26 00:10:25;;;;;;;1.40;0.90;;;19.50;63.40;;;;;;5021981;28;20529;-51
2023/09/26 00:12:53;;;;;;;1.23;1.03;;;19.50;63.40;;;;;;5023284;28;20456;-51
2023/09/26 00:15:22;;;;;;;1.37;1.20;;;19.50;63.40;;;;;;5021289;28;20472;-50
2023/09/26 00:17:51;;;;;;;1.90;1.30;;;19.50;63.50;;;;;;5022985;28;20421;-50
2023/09/26 00:20:22;;;;;;;1.40;1.10;;;19.50;63.40;;;;;;5020710;28;20480;-50
2023/09/26 00:22:50;;;;;;;1.47;1.20;;;19.60;63.50;;;;;;5025971;28;20467;-50
2023/09/26 00:25:18;;;;;;;1.60;1.40;;;19.60;63.50;;;;;;5023064;28;20507;-52
2023/09/26 00:27:47;;;;;;;1.30;1.03;;;19.50;63.40;;;;;;5023979;28;20563;-50
2023/09/26 00:30:16;;;;;;;1.70;1.03;;;19.50;63.40;;;;;;5021842;28;20471;-50
2023/09/26 00:32:46;;;;;;;2.73;1.53;;;19.50;63.40;;;;;;5025698;28;20779;-50
2023/09/26 00:35:15;;;;;;;1.80;1.37;;;19.50;63.40;;;;;;5020976;28;20472;-50
2023/09/26 00:37:48;;;;;;;1.40;1.07;;;19.50;63.40;;;;;;5023310;28;20435;-50
2023/09/26 00:40:18;;;;;;;1.30;0.90;;;19.50;63.60;;;;;;5034452;28;20685;-51
2023/09/26 00:42:47;;;;;;;1.40;1.20;;;19.50;63.40;;;;;;5025258;28;20464;-51
2023/09/26 00:45:15;;;;;;;1.30;1.20;;;19.50;63.40;;;;;;5015088;28;20538;-51
2023/09/26 00:47:45;;;;;;;1.60;1.37;;;19.50;63.40;;;;;;5024120;28;20493;-51
2023/09/26 00:50:14;;;;;;;1.53;1.20;;;19.50;63.40;;;;;;5018712;28;20519;-51
2023/09/26 00:52:46;;;;;;;1.20;1.07;;;19.50;63.40;;;;;;5036601;28;20847;-50
2023/09/26 00:55:17;;;;;;;1.20;1.07;;;19.50;63.40;;;;;;5022112;28;20470;-50
2023/09/26 00:57:46;;;;;;;1.10;0.90;;;19.50;63.40;;;;;;5025568;28;20432;-51
2023/09/26 01:00:19;;;;;;;1.60;0.93;;;19.50;63.40;;;;;;5033748;28;20480;-51
2023/09/26 01:02:48;;;;;;;1.80;1.40;;;19.50;63.40;;;;;;5023189;28;21004;-50
2023/09/26 01:05:17;;;;;;;1.70;1.10;;;19.50;63.40;;;;;;5034224;28;20476;-50
2023/09/26 01:07:46;;;;;;;1.60;1.37;;;19.50;63.40;;;;;;5019563;28;20996;-52
2023/09/26 01:10:14;;;;;;;1.83;1.23;;;19.50;63.40;;;;;;5031214;28;20998;-50
2023/09/26 01:12:42;;;;;;;1.33;0.90;;;19.50;63.40;;;;;;5025095;28;20465;-50
2023/09/26 01:15:11;;;;;;;1.70;1.17;;;19.50;63.40;;;;;;5023712;28;20993;-51
2023/09/26 01:17:39;;;;;;;1.40;0.90;;;19.50;63.40;;;;;;5025248;28;20530;-51
2023/09/26 01:20:14;;;;;;;1.57;1.47;;;19.50;63.40;;;;;;5029268;28;20496;-49
2023/09/26 01:22:46;;;;;;;2.60;1.20;;;19.50;63.40;;;;;;5020922;28;20472;-50
2023/09/26 01:25:17;;;;;;;1.97;1.20;;;19.50;63.40;;;;;;5021143;28;20487;-50
2023/09/26 01:27:46;;;;;;;1.53;1.00;;;19.50;63.40;;;;;;5020963;28;20472;-52
2023/09/26 01:30:16;;;;;;;1.60;1.30;;;19.40;63.30;;;;;;5021624;28;20564;-51
2023/09/26 01:32:46;;;;;;;1.97;1.10;;;19.40;63.30;;;;;;5019691;28;20456;-50
2023/09/26 01:35:14;;;;;;;1.43;0.90;;;19.40;63.30;;;;;;5028548;28;20610;-52
2023/09/26 01:37:43;;;;;;;1.23;1.00;;;19.50;63.40;;;;;;5033689;28;20452;-50
2023/09/26 01:40:12;;;;;;;2.10;1.50;;;19.40;63.30;;;;;;5024496;28;20462;-50
2023/09/26 01:42:42;;;;;;;2.63;1.27;;;19.40;63.30;;;;;;5019260;28;20844;-50
2023/09/26 01:45:11;;;;;;;2.00;1.00;;;19.40;63.30;;;;;;5021093;28;20579;-51
2023/09/26 01:47:46;;;;;;;2.33;1.20;;;19.40;63.30;;;;;;5020803;28;20460;-51
2023/09/26 01:50:15;;;;;;;1.50;1.30;;;19.40;63.30;;;;;;5022962;28;21111;-51
2023/09/26 01:52:44;;;;;;;1.70;1.20;;;19.40;63.30;;;;;;5024041;28;20467;-50
2023/09/26 01:55:14;;;;;;;1.93;1.20;;;19.40;63.30;;;;;;5029811;28;20471;-50
2023/09/26 01:57:44;;;;;;;1.57;1.27;;;19.40;63.30;;;;;;5023799;28;20420;-51
2023/09/26 02:00:14;;;;;;;1.47;1.37;;;19.40;63.30;;;;;;5021716;28;20515;-51
2023/09/26 02:02:45;;;;;;;3.30;2.23;;;19.40;63.30;;;;;;5024693;28;20984;-50
2023/09/26 02:05:14;;;;;;;1.73;1.60;;;19.40;63.30;;;;;;5022642;28;20892;-50
2023/09/26 02:07:43;;;;;;;2.20;1.30;;;19.40;63.30;;;;;;5023921;28;20558;-51
2023/09/26 02:10:11;;;;;;;1.50;1.03;;;19.40;63.30;;;;;;5023762;28;21022;-50
2023/09/26 02:12:42;;;;;;;1.97;1.50;;;19.40;63.30;;;;;;5025864;28;20460;-51
2023/09/26 02:15:12;;;;;;;2.33;1.43;;;19.40;63.30;;;;;;5020462;28;20503;-50
2023/09/26 02:17:41;;;;;;;2.00;1.37;;;19.40;63.30;;;;;;5016713;28;20445;-51
2023/09/26 02:20:12;;;;;;;2.53;1.63;;;19.40;63.30;;;;;;5020845;28;20480;-51
2023/09/26 02:22:42;;;;;;;1.60;1.13;;;19.40;64.60;;;;;;5025319;28;20468;-51
2023/09/26 02:25:11;;;;;;;1.53;1.10;;;19.40;63.30;;;;;;5024327;28;20467;-51
2023/09/26 02:27:40;;;;;;;3.10;1.40;;;19.40;63.30;;;;;;5024794;28;20494;-50
2023/09/26 02:30:09;;;;;;;1.70;1.40;;;19.40;63.30;;;;;;5023691;28;20474;-50
2023/09/26 02:32:39;;;;;;;1.70;1.17;;;19.40;63.30;;;;;;5025434;28;20839;-50
2023/09/26 02:35:10;;;;;;;1.60;1.17;;;19.40;63.30;;;;;;5022885;28;20515;-51
2023/09/26 02:37:39;;;;;;;1.57;1.20;;;19.30;63.10;;;;;;5036031;28;20827;-50
2023/09/26 02:40:10;;;;;;;2.37;1.83;;;19.30;63.20;;;;;;5023794;28;20548;-50
2023/09/26 02:42:40;;;;;;;1.73;1.63;;;19.40;63.30;;;;;;5026612;28;20569;-51
2023/09/26 02:45:09;;;;;;;1.83;1.30;;;19.30;63.10;;;;;;5016368;28;20466;-50
2023/09/26 02:47:39;;;;;;;3.27;1.77;;;19.40;63.30;;;;;;5022544;28;20459;-51
2023/09/26 02:50:09;;;;;;;1.53;1.00;;;19.30;63.20;;;;;;5019183;28;20492;-50
2023/09/26 02:52:37;;;;;;;1.77;1.40;;;19.30;63.10;;;;;;5024832;28;20460;-51
2023/09/26 02:55:07;;;;;;;1.40;1.10;;;19.40;63.30;;;;;;5027758;28;20493;-50
2023/09/26 02:57:36;;;;;;;1.60;1.17;;;19.40;63.40;;;;;;5022949;28;20436;-52
2023/09/26 03:00:13;;;;;;;4.53;1.50;;;19.30;63.10;;;;;;5027302;28;20475;-51
2023/09/26 03:02:44;;;;;;;1.53;1.00;;;19.30;63.10;;;;;;5028590;28;20451;-51
2023/09/26 03:05:13;;;;;;;1.40;1.00;;;19.30;63.10;;;;;;5025089;28;20554;-50
2023/09/26 03:07:41;;;;;;;1.67;1.07;;;19.40;63.30;;;;;;5046430;28;20558;-51
2023/09/26 03:10:10;;;;;;;2.30;1.30;;;19.30;63.20;;;;;;5041902;28;20475;-50
2023/09/26 03:12:38;;;;;;;1.63;1.23;;;19.30;63.20;;;;;;5031471;28;20466;-50
2023/09/26 03:15:08;;;;;;;1.47;1.20;;;19.30;63.20;;;;;;5024937;28;20476;-51
2023/09/26 03:17:36;;;;;;;1.43;1.27;;;19.30;64.50;;;;;;5025273;28;20432;-50
2023/09/26 03:20:09;;;;;;;1.70;1.20;;;19.30;63.20;;;;;;5036696;28;20471;-50
2023/09/26 03:22:36;;;;;;;1.60;1.30;;;19.30;63.20;;;;;;5022260;28;20465;-50
2023/09/26 03:25:05;;;;;;;1.50;1.20;;;19.30;63.10;;;;;;5029321;28;20467;-50
2023/09/26 03:27:34;;;;;;;1.50;1.30;;;19.30;63.20;;;;;;5025455;28;20464;-51
2023/09/26 03:30:03;;;;;;;1.37;1.27;;;19.30;63.10;;;;;;5039012;28;20482;-51
2023/09/26 03:32:31;;;;;;;1.67;1.40;;;19.30;63.10;;;;;;5026951;28;20466;-50
2023/09/26 03:35:00;;;;;;;1.60;1.00;;;19.30;63.10;;;;;;5041298;28;21010;-53
2023/09/26 03:37:29;;;;;;;2.00;1.40;;;19.30;63.20;;;;;;5031078;28;20531;-51
2023/09/26 03:39:57;;;;;;;1.80;1.30;;;19.20;63.10;;;;;;5042108;28;20469;-50
2023/09/26 03:42:26;;;;;;;2.53;1.27;;;19.30;63.10;;;;;;5026991;28;20439;-50
2023/09/26 03:44:54;;;;;;;2.20;1.50;;;19.20;63.10;;;;;;5027380;28;20957;-52
2023/09/26 03:47:22;;;;;;;1.57;1.37;;;19.30;63.20;;;;;;5029365;28;20444;-53
2023/09/26 03:49:53;;;;;;;1.37;0.90;;;19.20;63.10;;;;;;5023647;28;20468;-54
2023/09/26 03:52:21;;;;;;;3.17;1.23;;;19.20;63.10;;;;;;5023096;28;20444;-51
2023/09/26 03:54:51;;;;;;;2.33;1.20;;;19.20;63.10;;;;;;5023412;28;20460;-50
2023/09/26 03:57:19;;;;;;;2.80;1.47;;;19.20;63.10;;;;;;5022753;28;20470;-50
2023/09/26 03:59:49;;;;;;;1.53;1.10;;;19.20;63.10;;;;;;5020571;28;20471;-50
2023/09/26 04:02:17;;;;;;;1.57;1.40;;;19.20;63.10;;;;;;5019627;28;20440;-50
2023/09/26 04:04:46;;;;;;;1.73;1.30;;;19.20;63.10;;;;;;5019217;28;20862;-52
2023/09/26 04:07:14;;;;;;;4.30;1.23;;;19.20;63.10;;;;;;5014554;28;20766;-50
2023/09/26 04:09:43;;;;;;;2.07;1.40;;;19.20;63.10;;;;;;5022209;28;20479;-51
2023/09/26 04:12:12;;;;;;;1.83;1.20;;;19.20;63.10;;;;;;5019454;28;20444;-52
2023/09/26 04:14:40;;;;;;;2.00;1.20;;;19.20;63.10;;;;;;5023197;28;20519;-51
2023/09/26 04:17:08;;;;;;;1.87;1.43;;;19.20;63.10;;;;;;5018581;28;20441;-51
2023/09/26 04:19:36;;;;;;;3.37;1.33;;;19.20;63.10;;;;;;5018110;28;20472;-51
2023/09/26 04:22:05;;;;;;;1.20;0.80;;;19.20;63.10;;;;;;5018808;28;21033;-51
2023/09/26 04:24:33;;;;;;;1.40;1.13;;;19.20;63.10;;;;;;5016300;28;20456;-50
2023/09/26 04:27:01;;;;;;;2.40;1.20;;;19.20;63.10;;;;;;5019032;28;20465;-50
2023/09/26 04:29:31;;;;;;;2.07;0.90;;;19.20;64.30;;;;;;5017550;28;20468;-50
2023/09/26 04:31:59;;;;;;;2.10;1.20;;;19.20;63.10;;;;;;5022237;28;20807;-50
2023/09/26 04:34:29;;;;;;;2.07;1.57;;;19.20;63.10;;;;;;5021984;28;20445;-51
2023/09/26 04:36:57;;;;;;;2.30;1.60;;;19.10;63.00;;;;;;5020630;28;20539;-50
2023/09/26 04:39:26;;;;;;;1.30;0.90;;;19.10;64.20;;;;;;5023459;28;20433;-50
2023/09/26 04:41:54;;;;;;;1.83;1.33;;;19.10;63.00;;;;;;5025403;28;20432;-51
2023/09/26 04:44:22;;;;;;;1.60;1.10;;;19.10;63.00;;;;;;5022512;28;20504;-50
2023/09/26 04:46:52;;;;;;;1.30;1.10;;;19.10;63.00;;;;;;5021990;28;20470;-50
2023/09/26 04:49:20;;;;;;;1.70;1.20;;;19.10;63.00;;;;;;5025084;28;20476;-51
2023/09/26 04:51:48;;;;;;;1.30;1.10;;;19.10;63.00;;;;;;5021343;28;20490;-51
2023/09/26 04:54:17;;;;;;;1.53;1.20;;;19.10;63.00;;;;;;5021963;28;20444;-51
2023/09/26 04:56:46;;;;;;;1.47;1.10;;;19.10;63.00;;;;;;5024898;28;20436;-51
2023/09/26 04:59:14;;;;;;;1.80;1.33;;;19.10;63.10;;;;;;5022803;28;20459;-51
2023/09/26 05:01:45;;;;;;;1.30;1.00;;;19.10;63.10;;;;;;5016861;28;20463;-50
2023/09/26 05:04:15;;;;;;;1.47;1.27;;;19.10;63.10;;;;;;5020932;28;20868;-51
2023/09/26 05:06:43;;;;;;;1.47;1.17;;;19.10;63.00;;;;;;5019825;28;20515;-52
2023/09/26 05:09:11;;;;;;;1.83;1.30;;;19.10;63.00;;;;;;5023150;28;20521;-54
2023/09/26 05:11:39;;;;;;;1.47;1.37;;;19.10;63.00;;;;;;5025100;28;20966;-51
2023/09/26 05:14:07;;;;;;;2.17;1.37;;;19.10;63.00;;;;;;5022116;28;20488;-50
2023/09/26 05:16:35;;;;;;;1.50;1.23;;;19.10;63.00;;;;;;5024777;28;20655;-52
2023/09/26 05:19:04;;;;;;;1.60;1.40;;;19.10;63.00;;;;;;5042500;28;20423;-50
2023/09/26 05:21:33;;;;;;;3.03;1.20;;;19.10;63.00;;;;;;5019128;28;20480;-50
2023/09/26 05:24:01;;;;;;;1.40;1.20;;;19.10;63.00;;;;;;5027005;28;20486;-52
2023/09/26 05:26:30;;;;;;;1.63;1.20;;;19.00;62.90;;;;;;5023853;28;20941;-50
2023/09/26 05:28:58;;;;;;;1.90;1.43;;;19.10;63.00;;;;;;5026527;28;21108;-53
2023/09/26 05:31:30;;;;;;;1.47;1.07;;;19.00;62.90;;;;;;5025962;28;20836;-50
2023/09/26 05:33:58;;;;;;;1.67;1.03;;;19.00;62.90;;;;;;5028366;28;20452;-51
2023/09/26 05:36:26;;;;;;;3.30;1.30;;;19.00;62.90;;;;;;5022218;28;20476;-52
2023/09/26 05:38:56;;;;;;;1.50;1.20;;;19.00;62.90;;;;;;5033747;28;20446;-50
2023/09/26 05:41:26;;;;;;;1.97;1.10;;;19.00;62.90;;;;;;5027232;28;20985;-51
2023/09/26 05:43:54;;;;;;;1.10;0.70;;;19.00;62.90;;;;;;5022506;28;20459;-51
2023/09/26 05:46:22;;;;;;;1.87;1.30;;;19.00;62.90;;;;;;5025560;28;20467;-51
2023/09/26 05:48:51;;;;;;;2.73;1.33;;;19.00;62.90;;;;;;5027313;28;20463;-50
2023/09/26 05:51:20;;;;;;;4.30;1.57;;;19.00;62.90;;;;;;5015910;28;20479;-50
2023/09/26 05:53:48;;;;;;;1.67;1.13;;;19.00;62.80;;;;;;5024811;28;20962;-52
2023/09/26 05:56:18;;;;;;;1.83;1.33;;;18.90;62.80;;;;;;5023682;28;20480;-51
2023/09/26 05:58:46;;;;;;;1.83;1.20;;;18.90;62.80;;;;;;5026452;28;20807;-50
2023/09/26 06:01:15;;;;;;;1.50;1.10;;;18.90;62.80;;;;;;5021563;28;21022;-50
2023/09/26 06:03:43;;;;;;;1.67;1.27;;;18.90;62.80;;;;;;5033335;28;20472;-51
2023/09/26 06:06:11;;;;;;;2.90;1.40;;;18.90;62.80;;;;;;5019838;28;20980;-50
2023/09/26 06:08:39;;;;;;;3.60;2.17;;;18.90;62.60;;;;;;5018650;28;20945;-50
2023/09/26 06:11:09;;;;;;;3.00;1.83;;;18.70;61.30;;;;;;5020817;28;20213;-50
2023/09/26 06:13:39;;;;;;;2.67;2.23;;;18.70;62.00;;;;;;5027633;28;20464;-49
2023/09/26 06:16:08;;;;;;;2.33;1.70;;;18.70;61.90;;;;;;5017434;28;20487;-50
2023/09/26 06:18:36;;;;;;;1.77;1.40;;;18.70;62.10;;;;;;5025814;28;20439;-50
2023/09/26 06:21:05;;;;;;;2.17;1.73;;;18.70;62.00;;;;;;5024593;28;20475;-50
2023/09/26 06:23:34;;;;;;;2.17;1.70;;;18.80;62.00;;;;;;5023128;28;20456;-51
2023/09/26 06:26:02;;;;;;;2.47;2.10;;;18.80;62.10;;;;;;5027226;28;20467;-50
2023/09/26 06:28:31;;;;;;;2.20;1.70;;;18.80;62.10;;;;;;5019459;28;20787;-51
2023/09/26 06:31:06;;;;;;;1.87;1.47;;;18.80;62.10;;;;;;5022937;28;20469;-51
2023/09/26 06:33:35;;;;;;;3.07;1.80;;;18.80;62.20;;;;;;5028804;28;20450;-52
2023/09/26 06:36:11;;;;;;;2.20;1.70;;;18.80;62.20;;;;;;5027244;28;20474;-51
2023/09/26 06:38:40;;;;;;;2.47;2.20;;;18.80;63.40;;;;;;5026514;28;21003;-51
2023/09/26 06:41:09;;;;;;;1.40;1.27;;;18.70;62.00;;;;;;5030180;28;20462;-52
2023/09/26 06:43:37;;;;;;;1.80;1.50;;;18.70;62.20;;;;;;5026525;28;20455;-51
2023/09/26 06:46:08;;;;;;;1.50;1.30;;;18.70;62.20;;;;;;5027803;28;20463;-51
2023/09/26 06:48:38;;;;;;;2.40;1.50;;;18.70;62.10;;;;;;5025723;28;20968;-52
2023/09/26 06:51:08;;;;;;;2.80;1.40;;;18.70;62.00;;;;;;5028007;28;20478;-50
2023/09/26 06:53:37;;;;;;;1.57;1.00;;;18.70;63.90;;;;;;5026690;28;20956;-50
2023/09/26 06:56:07;;;;;;;1.80;1.47;;;18.70;62.50;;;;;;5031045;28;20468;-52
2023/09/26 06:58:36;;;;;;;2.80;2.00;;;18.70;62.60;;;;;;5028043;28;20432;-52
2023/09/26 07:01:15;;;;;;;2.73;1.77;;;18.70;62.20;;;;;;5030891;28;20471;-50
2023/09/26 07:03:43;;;;;;;3.23;1.80;;;18.70;62.20;;;;;;5027453;28;20466;-52
2023/09/26 07:06:13;;;;;;;2.60;1.57;;;18.70;62.50;;;;;;5024326;28;20575;-51
2023/09/26 07:08:43;;;;;;;4.70;2.40;;;18.70;62.10;;;;;;5047436;28;20874;-52
2023/09/26 07:11:11;;;;;;;3.60;2.50;;;18.60;61.70;;;;;;5028201;28;20466;-51
2023/09/26 07:13:40;;;;;;;4.83;2.57;;;18.60;61.70;;;;;;5029895;28;20470;-51
2023/09/26 07:16:11;;;;;;;3.80;1.87;;;18.50;62.40;;;;;;5022303;28;20483;-51
2023/09/26 07:18:40;;;;;;;2.90;2.00;;;18.50;62.40;;;;;;5032755;28;20960;-51
2023/09/26 07:21:09;;;;;;;2.43;1.80;;;18.50;62.40;;;;;;5020562;28;21280;-51
2023/09/26 07:23:38;;;;;;;2.83;2.03;;;18.50;62.40;;;;;;5025412;28;21019;-51
2023/09/26 07:26:08;;;;;;;1.97;1.80;;;18.60;62.50;;;;;;5029182;28;20470;-50
2023/09/26 07:28:40;;;;;;;3.03;2.27;;;18.60;62.50;;;;;;5034644;28;20520;-52
2023/09/26 07:31:09;;;;;;;3.93;2.20;;;18.60;62.50;;;;;;5026670;28;20479;-50
2023/09/26 07:33:40;;;;;;;3.17;1.83;;;18.60;62.50;;;;;;5028149;28;20566;-51
2023/09/26 07:36:09;;;;;;;2.30;2.03;;;18.60;62.60;;;;;;5022667;28;20565;-51
2023/09/26 07:38:37;;;;;;;3.07;2.40;;;18.70;62.60;;;;;;5028477;28;20483;-50
2023/09/26 07:41:05;;;;;;;1.73;1.40;;;18.70;62.60;;;;;;5033835;28;20440;-51
2023/09/26 07:43:34;;;;;;;4.10;2.00;;;18.70;62.60;;;;;;5021581;28;21007;-51
2023/09/26 07:46:06;;;;;;;1.90;1.70;;;18.70;62.60;;;;;;5022742;28;20464;-54
2023/09/26 07:48:35;;;;;;;1.63;1.53;;;18.70;62.60;;;;;;5029238;28;20443;-51
2023/09/26 07:51:08;;;;;;;2.70;1.90;;;18.70;62.60;;;;;;5026013;28;20517;-50
2023/09/26 07:53:39;;;;;;;1.60;1.40;;;18.70;62.60;;;;;;5031360;28;20539;-51
2023/09/26 07:56:07;;;;;;;1.83;1.73;;;18.70;62.60;;;;;;5028229;28;20464;-50
2023/09/26 07:58:35;;;;;;;2.87;1.80;;;18.70;62.60;;;;;;5034158;28;20435;-50
2023/09/26 08:01:06;;;;;;;2.33;1.70;;;18.70;62.60;;;;;;5021275;28;20507;-51
2023/09/26 08:03:35;;;;;;;3.30;2.13;;;18.80;62.70;;;;;;5023200;28;21019;-51
2023/09/26 08:06:07;;;;;;;2.03;1.83;;;18.80;62.70;;;;;;5018220;28;20487;-51
2023/09/26 08:08:36;;;;;;;2.20;1.73;;;18.80;62.70;;;;;;5022085;28;20579;-51
2023/09/26 08:11:09;;;;;;;2.73;1.40;;;18.80;62.70;;;;;;5019711;28;20554;-52
2023/09/26 08:13:39;;;;;;;1.90;1.70;;;18.80;62.70;;;;;;5018357;28;20535;-50
2023/09/26 08:16:08;;;;;;;2.10;1.50;;;18.80;62.70;;;;;;5016107;28;20480;-50
2023/09/26 08:18:37;;;;;;;2.37;1.60;;;18.80;62.70;;;;;;5022221;28;20531;-50
2023/09/26 08:21:07;;;;;;;3.17;1.60;;;18.80;62.70;;;;;;5018519;28;20486;-51
2023/09/26 08:23:35;;;;;;;1.80;1.30;;;18.80;62.70;;;;;;5020556;28;20830;-51
2023/09/26 08:26:06;;;;;;;1.73;1.47;;;18.80;62.70;;;;;;5022546;28;20464;-50
2023/09/26 08:28:35;;;;;;;2.40;1.43;;;18.80;62.70;;;;;;5020097;28;20468;-51
2023/09/26 08:31:05;;;;;;;1.67;1.40;;;18.80;64.00;;;;;;5017047;28;20472;-50
2023/09/26 08:33:34;;;;;;;1.90;1.23;;;18.80;62.70;;;;;;5018055;28;20873;-50
2023/09/26 08:36:02;;;;;;;2.47;1.67;;;18.80;62.70;;;;;;5016547;28;20644;-50
2023/09/26 08:38:32;;;;;;;2.00;1.47;;;18.80;62.70;;;;;;5018316;28;20433;-51
2023/09/26 08:41:05;;;;;;;2.70;1.57;;;18.80;62.80;;;;;;5023370;28;20468;-50
2023/09/26 08:43:34;;;;;;;2.40;1.93;;;18.80;62.70;;;;;;5020901;28;20453;-50
2023/09/26 08:46:04;;;;;;;2.30;1.40;;;18.90;62.80;;;;;;5020488;28;20487;-51
2023/09/26 08:48:33;;;;;;;1.50;1.40;;;18.90;62.80;;;;;;5020406;28;20897;-50
2023/09/26 08:51:01;;;;;;;1.77;1.53;;;18.90;62.80;;;;;;5018279;28;20483;-50
2023/09/26 08:53:31;;;;;;;2.03;1.60;;;18.90;62.80;;;;;;5023557;28;20447;-51
2023/09/26 08:56:00;;;;;;;1.87;1.67;;;18.90;62.80;;;;;;5021223;28;20472;-50
2023/09/26 08:58:30;;;;;;;1.40;1.30;;;18.90;62.80;;;;;;5020877;28;20445;-50
2023/09/26 09:00:58;;;;;;;1.57;1.47;;;18.80;62.70;;;;;;5021845;28;20838;-50
2023/09/26 09:03:26;;;;;;;2.33;1.97;;;18.90;62.80;;;;;;5025650;28;20639;-50
2023/09/26 09:05:54;;;;;;;3.00;1.77;;;18.90;62.80;;;;;;5020327;28;20485;-51
2023/09/26 09:08:23;;;;;;;2.80;1.70;;;18.80;62.70;;;;;;5024466;28;20448;-50
2023/09/26 09:10:54;;;;;;;1.97;1.50;;;18.90;62.80;;;;;;5023544;28;20479;-50
2023/09/26 09:13:30;;;;;;;2.53;1.70;;;18.90;62.80;;;;;;5020564;28;20933;-50
2023/09/26 09:16:12;;;;;;;3.63;1.40;;;18.90;62.80;;;;;;5021091;28;20495;-50
2023/09/26 09:18:42;;;;;;;2.42;1.65;;;18.90;62.90;;;;;;5021462;28;20447;-50
2023/09/26 09:21:26;;;;;;;2.50;1.50;;;19.00;62.90;;;;;;5017095;28;20325;-50
2023/09/26 09:23:55;;;;;;;2.47;1.60;;;18.90;62.80;;;;;;5023642;28;20447;-51
2023/09/26 09:26:29;;;;;;;1.67;1.57;;;18.90;62.80;;;;;;5023824;28;20468;-51
2023/09/26 09:28:59;;;;;;;1.57;1.47;;;18.90;62.80;;;;;;5036465;28;20444;-52
2023/09/26 09:31:28;;;;;;;2.57;1.20;;;18.90;62.80;;;;;;5023073;28;21055;-50
2023/09/26 09:33:57;;;;;;;2.47;1.67;;;18.90;62.80;;;;;;5024032;28;20451;-50
2023/09/26 09:36:25;;;;;;;1.40;1.30;;;18.90;62.80;;;;;;5021243;28;20472;-50
2023/09/26 09:38:53;;;;;;;2.00;1.70;;;18.90;62.90;;;;;;5026904;28;20432;-50
2023/09/26 09:41:21;;;;;;;1.60;1.23;;;18.90;62.80;;;;;;5022039;28;20467;-52
2023/09/26 09:43:51;;;;;;;1.53;1.30;;;18.90;62.90;;;;;;5024130;28;20474;-50
2023/09/26 09:46:22;;;;;;;2.10;1.73;;;18.90;62.80;;;;;;5026129;28;20468;-50
2023/09/26 09:48:57;;;;;;;2.20;1.60;;;18.90;62.80;;;;;;5023942;28;20458;-51
2023/09/26 09:51:27;;;;;;;1.70;1.37;;;18.90;62.80;;;;;;5020668;28;20471;-50
2023/09/26 09:53:55;;;;;;;2.03;1.30;;;18.90;62.90;;;;;;5026061;28;20444;-51
2023/09/26 09:56:26;;;;;;;1.60;1.37;;;18.90;62.80;;;;;;5022795;28;20561;-51
2023/09/26 09:59:05;;;;;;;1.63;1.40;;;18.90;62.80;;;;;;5025786;28;20531;-50
2023/09/26 10:01:35;;;;;;;1.63;1.40;;;18.90;62.80;;;;;;5031463;28;20552;-50
2023/09/26 10:04:05;;;;;;;1.90;1.60;;;18.90;62.90;;;;;;5024448;28;20493;-50
2023/09/26 10:06:34;;;;;;;2.23;1.50;;;18.90;62.80;;;;;;5017532;28;20472;-50
2023/09/26 10:09:03;;;;;;;1.60;1.17;;;18.90;62.80;;;;;;5030677;28;20439;-50
2023/09/26 10:11:33;;;;;;;2.40;1.60;;;18.90;62.80;;;;;;5028373;28;20480;-50
2023/09/26 10:14:05;;;;;;;2.13;1.30;;;18.90;62.80;;;;;;5029199;28;20635;-51
2023/09/26 10:16:34;;;;;;;1.40;1.30;;;18.90;62.80;;;;;;5029376;28;20448;-51
2023/09/26 10:19:03;;;;;;;2.80;1.50;;;18.90;62.80;;;;;;5031295;28;20457;-51
2023/09/26 10:21:32;;;;;;;2.37;1.40;;;18.90;62.80;;;;;;5021811;28;20467;-49
2023/09/26 10:24:21;;;;;;;1.90;1.60;;;18.90;62.80;;;;;;5033231;28;20460;-51
2023/09/26 10:26:51;;;;;;;1.80;1.40;;;18.90;62.80;;;;;;5023406;28;20472;-51
2023/09/26 10:29:23;;;;;;;1.47;1.20;;;18.90;62.80;;;;;;5029015;28;20467;-50
2023/09/26 10:31:54;;;;;;;1.93;1.43;;;18.90;62.80;;;;;;5042054;28;20476;-50
2023/09/26 10:34:28;;;;;;;2.07;1.23;;;18.80;62.70;;;;;;5029328;28;20758;-50
2023/09/26 10:37:19;;;;;;;1.80;1.40;;;18.90;62.80;;;;;;5028794;28;20438;-50
2023/09/26 10:39:47;;;;;;;2.40;1.53;;;18.90;62.80;;;;;;5028379;28;20467;-49
2023/09/26 10:42:18;;;;;;;1.70;1.30;;;18.80;62.70;;;;;;5040554;28;20454;-50
2023/09/26 10:45:09;;;;;;;1.70;1.30;;;18.80;62.70;;;;;;5025130;28;20504;-50
2023/09/26 10:47:39;;;;;;;1.70;1.47;;;18.80;62.70;;;;;;5027781;28;20458;-49
2023/09/26 10:50:12;;;;;;;2.40;1.40;;;18.90;62.80;;;;;;5023765;28;20486;-50
2023/09/26 10:52:46;;;;;;;2.00;1.50;;;18.90;62.80;;;;;;5028146;28;20473;-50
2023/09/26 10:55:16;;;;;;;1.50;1.23;;;18.80;64.00;;;;;;5023788;28;20462;-50
2023/09/26 10:57:46;;;;;;;1.40;1.20;;;18.90;62.80;;;;;;5029324;28;20440;-50
2023/09/26 11:00:17;;;;;;;1.60;1.37;;;18.90;62.80;;;;;;5027837;28;20883;-50
2023/09/26 11:02:48;;;;;;;2.60;2.00;;;18.90;62.80;;;;;;5027458;28;20696;-51
2023/09/26 11:05:36;;;;;;;4.23;1.30;;;18.90;62.90;;;;;;5023857;28;20578;-51
2023/09/26 11:08:05;;;;;;;1.60;1.43;;;18.90;62.80;;;;;;5028047;28;20439;-51
2023/09/26 11:10:57;;;;;;;1.63;1.33;;;18.90;62.80;;;;;;5022560;28;20902;-50
2023/09/26 11:13:26;;;;;;;1.77;1.60;;;18.90;62.80;;;;;;5023216;28;20567;-51
2023/09/26 11:15:57;;;;;;;1.87;1.33;;;18.90;62.80;;;;;;5025106;28;20459;-50
2023/09/26 11:18:25;;;;;;;2.20;1.60;;;18.90;62.80;;;;;;5022979;28;20898;-50
2023/09/26 11:20:53;;;;;;;1.20;1.10;;;18.90;62.80;;;;;;5025199;28;20574;-52
2023/09/26 11:23:38;;;;;;;2.50;1.33;;;18.90;62.80;;;;;;5029069;28;20444;-50
2023/09/26 11:26:07;;;;;;;1.77;1.30;;;18.90;62.80;;;;;;5029410;28;21040;-50
2023/09/26 11:28:36;;;;;;;1.60;1.20;;;18.90;62.80;;;;;;5027118;28;20522;-51
2023/09/26 11:31:06;;;;;;;1.33;1.17;;;18.90;62.80;;;;;;5025077;28;20483;-52
2023/09/26 11:33:34;;;;;;;1.70;1.27;;;18.90;62.80;;;;;;5027170;28;20976;-50
2023/09/26 11:36:03;;;;;;;1.40;1.27;;;18.90;62.90;;;;;;5024603;28;20567;-51
2023/09/26 11:38:32;;;;;;;1.70;1.10;;;18.90;62.90;;;;;;5030452;28;20436;-52
2023/09/26 11:41:00;;;;;;;1.50;1.33;;;18.90;63.00;;;;;;5029413;28;20464;-50
2023/09/26 11:43:38;;;;;;;1.40;1.00;;;18.90;63.00;;;;;;5033219;28;20551;-50
2023/09/26 11:46:08;;;;;;;1.77;1.47;;;18.90;63.00;;;;;;5022236;28;20558;-50
2023/09/26 11:48:37;;;;;;;1.27;1.13;;;18.90;63.00;;;;;;5022034;28;20532;-50
2023/09/26 11:51:05;;;;;;;2.27;1.30;;;18.90;63.20;;;;;;5017947;28;20526;-50
2023/09/26 11:53:34;;;;;;;1.57;1.03;;;18.90;63.20;;;;;;5030551;28;20474;-52
2023/09/26 11:56:07;;;;;;;1.80;1.40;;;18.90;63.20;;;;;;5023404;28;20486;-51
2023/09/26 11:58:37;;;;;;;1.57;1.47;;;18.90;63.40;;;;;;5021203;28;20526;-50
2023/09/26 12:01:05;;;;;;;2.00;1.80;;;18.90;63.30;;;;;;5022794;28;20790;-50
2023/09/26 12:03:35;;;;;;;1.50;1.10;;;18.90;63.30;;;;;;5033150;28;20968;-52
2023/09/26 12:06:05;;;;;;;1.67;1.13;;;18.90;63.50;;;;;;5019902;28;20487;-52
2023/09/26 12:08:34;;;;;;;1.90;1.80;;;18.90;63.40;;;;;;5021190;28;20519;-51
2023/09/26 12:11:03;;;;;;;2.00;1.60;;;18.90;63.40;;;;;;5022703;28;21182;-50
2023/09/26 12:13:32;;;;;;;1.60;1.17;;;18.90;63.40;;;;;;5018689;28;20489;-50
2023/09/26 12:16:00;;;;;;;1.70;1.27;;;18.90;63.50;;;;;;5022479;28;20476;-51
2023/09/26 12:18:31;;;;;;;2.23;1.40;;;18.90;63.40;;;;;;5018881;28;20757;-50
2023/09/26 12:21:01;;;;;;;1.60;1.30;;;18.90;63.40;;;;;;5016675;28;20468;-51
2023/09/26 12:23:29;;;;;;;2.00;1.20;;;18.90;63.50;;;;;;5019482;28;20449;-50
2023/09/26 12:25:58;;;;;;;1.70;1.27;;;18.90;63.50;;;;;;5018730;28;20917;-50
2023/09/26 12:28:26;;;;;;;2.03;1.77;;;19.00;63.60;;;;;;5020957;28;20498;-50
2023/09/26 12:30:54;;;;;;;1.57;1.33;;;19.00;63.60;;;;;;5018514;28;20531;-51
2023/09/26 12:33:22;;;;;;;1.70;1.60;;;19.00;63.60;;;;;;5020531;28;20495;-53
2023/09/26 12:35:50;;;;;;;1.53;1.17;;;18.90;63.50;;;;;;5017345;28;20486;-53
2023/09/26 12:38:20;;;;;;;1.67;1.33;;;19.00;63.60;;;;;;5015616;28;20665;-50
2023/09/26 12:40:48;;;;;;;2.10;1.60;;;19.00;63.60;;;;;;5019024;28;20468;-50
2023/09/26 12:43:16;;;;;;;1.40;1.30;;;19.00;63.60;;;;;;5017201;28;20536;-51
2023/09/26 12:45:45;;;;;;;1.47;1.07;;;19.00;63.60;;;;;;5018832;28;20475;-52
2023/09/26 12:48:13;;;;;;;2.13;1.57;;;19.00;63.70;;;;;;5019004;28;20432;-52
2023/09/26 12:50:41;;;;;;;1.53;1.30;;;19.00;63.70;;;;;;5015557;28;20575;-50
2023/09/26 12:53:09;;;;;;;1.93;1.23;;;19.00;63.80;;;;;;5019909;28;20475;-50
2023/09/26 12:55:39;;;;;;;1.20;1.10;;;19.00;63.80;;;;;;5023785;28;20822;-51
2023/09/26 12:58:07;;;;;;;1.83;1.37;;;19.00;63.70;;;;;;5025330;28;20535;-51
2023/09/26 13:00:36;;;;;;;1.47;1.07;;;19.00;63.70;;;;;;5021570;28;20565;-51